Time;durP1;ratioP1;P1;durP2;ratioP2;P2;SDS_P1;SDS_P2;PMS_P1;PMS_P2;Temp;Humidity;BMP_temperature;BMP_pressure;BME280_temperature;BME280_humidity;BME280_pressure;Samples;Min_cycle;Max_cycle;Signal;HPM_P1;HPM_P2
2023/12/31 00:02:19;;;;;;;28.10;13.00;;;;;;;4.09;74.65;99102.14;108652;1253;108246;-71
2023/12/31 00:04:47;;;;;;;29.60;11.90;;;;;;;4.11;74.68;99101.89;108700;1253;95918;-71
2023/12/31 00:07:14;;;;;;;21.60;8.80;;;;;;;4.12;74.89;99099.92;108632;1253;107594;-71
2023/12/31 00:09:42;;;;;;;22.90;9.20;;;;;;;4.10;74.72;99099.12;108702;1252;94733;-72
2023/12/31 00:12:10;;;;;;;21.80;8.50;;;;;;;4.09;74.80;99093.54;108761;1253;94187;-72
2023/12/31 00:14:38;;;;;;;22.90;9.40;;;;;;;4.12;74.88;99093.77;108772;1253;109906;-72
2023/12/31 00:17:05;;;;;;;24.20;10.40;;;;;;;4.14;74.89;99097.37;108746;1253;95684;-72
2023/12/31 00:19:33;;;;;;;31.20;11.60;;;;;;;4.15;74.90;99098.70;108713;1252;107409;-69
2023/12/31 00:22:01;;;;;;;30.50;13.10;;;;;;;4.18;74.83;99098.77;108761;1253;94543;-69
2023/12/31 00:24:29;;;;;;;23.30;9.60;;;;;;;4.22;74.93;99100.35;108743;1253;94353;-72
2023/12/31 00:26:57;;;;;;;27.00;11.10;;;;;;;4.26;74.83;99099.83;108795;1253;109632;-72
2023/12/31 00:29:24;;;;;;;26.40;11.80;;;;;;;4.27;74.84;99098.70;108661;1253;95206;-71
2023/12/31 00:31:53;;;;;;;26.00;11.30;;;;;;;4.24;74.87;99097.98;108727;1253;107587;-69
2023/12/31 00:34:21;;;;;;;27.20;12.20;;;;;;;4.24;74.78;99100.46;108780;1253;94305;-69
2023/12/31 00:36:49;;;;;;;34.10;14.40;;;;;;;4.25;74.75;99102.15;108764;1253;94361;-70
2023/12/31 00:39:17;;;;;;;33.00;15.20;;;;;;;4.28;74.92;99110.23;108744;1252;109827;-69
2023/12/31 00:41:45;;;;;;;26.10;11.70;;;;;;;4.28;74.85;99114.80;108804;1253;95200;-70
2023/12/31 00:44:13;;;;;;;26.00;10.80;;;;;;;4.30;75.00;99113.14;108773;1252;107102;-69
2023/12/31 00:46:40;;;;;;;25.40;11.70;;;;;;;4.31;74.95;99117.12;108787;1252;94663;-69
2023/12/31 00:49:08;;;;;;;25.70;11.00;;;;;;;4.33;75.00;99121.96;108852;1252;94655;-69
2023/12/31 00:51:37;;;;;;;23.50;10.70;;;;;;;4.36;75.03;99118.67;108878;1253;110046;-70
2023/12/31 00:54:04;;;;;;;22.00;9.80;;;;;;;4.40;75.10;99114.80;108785;1253;95863;-69
2023/12/31 00:56:32;;;;;;;23.40;9.40;;;;;;;4.45;75.08;99117.39;108679;1252;106780;-70
2023/12/31 00:59:02;;;;;;;21.70;9.80;;;;;;;4.49;75.17;99116.84;108795;1253;94525;-69
2023/12/31 01:01:30;;;;;;;18.70;8.10;;;;;;;4.53;75.18;99122.08;108803;1252;94248;-70
2023/12/31 01:03:58;;;;;;;18.80;8.40;;;;;;;4.58;75.24;99120.80;108825;1253;109516;-70
2023/12/31 01:06:25;;;;;;;18.30;8.10;;;;;;;4.61;75.25;99114.68;108708;1252;95538;-70
2023/12/31 01:08:54;;;;;;;21.10;9.00;;;;;;;4.63;75.15;99116.52;108829;1252;107191;-70
2023/12/31 01:11:22;;;;;;;19.40;7.50;;;;;;;4.68;75.23;99118.93;108742;1253;94597;-70
2023/12/31 01:13:50;;;;;;;19.90;8.60;;;;;;;4.72;75.27;99115.55;108793;1252;94222;-70
2023/12/31 01:16:18;;;;;;;23.30;10.20;;;;;;;4.72;75.27;99116.27;108747;1253;109980;-70
2023/12/31 01:18:46;;;;;;;20.50;8.90;;;;;;;4.72;75.20;99119.83;108677;1253;95462;-70
2023/12/31 01:21:14;;;;;;;20.40;8.50;;;;;;;4.73;75.20;99124.34;108770;1252;107386;-70
2023/12/31 01:23:41;;;;;;;20.40;9.10;;;;;;;4.76;75.35;99118.20;108720;1253;94604;-70
2023/12/31 01:26:14;;;;;;;19.50;9.10;;;;;;;4.80;75.31;99112.59;108789;1253;94495;-70
2023/12/31 01:28:41;;;;;;;20.60;9.20;;;;;;;4.79;75.20;99110.68;108807;1252;109916;-71
2023/12/31 01:31:17;;;;;;;25.70;9.80;;;;;;;4.81;75.28;99110.07;108828;1252;95518;-71
2023/12/31 01:33:45;;;;;;;20.60;8.90;;;;;;;4.84;75.24;99111.34;108736;1253;107521;-71
2023/12/31 01:36:15;;;;;;;21.00;9.30;;;;;;;4.85;75.28;99110.77;108789;1252;94527;-72
2023/12/31 01:38:43;;;;;;;20.00;9.00;;;;;;;4.85;75.29;99113.55;108779;1253;94335;-71
2023/12/31 01:41:11;;;;;;;20.30;9.60;;;;;;;4.87;75.22;99120.50;108774;1253;108907;-71
2023/12/31 01:43:39;;;;;;;21.50;10.50;;;;;;;4.88;75.34;99125.00;108589;1253;95585;-71
2023/12/31 01:46:09;;;;;;;21.70;10.10;;;;;;;4.89;75.31;99124.58;108708;1252;107884;-71
2023/12/31 01:48:37;;;;;;;23.50;10.10;;;;;;;4.89;75.28;99123.21;108635;1253;94656;-72
2023/12/31 01:51:06;;;;;;;23.30;9.70;;;;;;;4.88;75.17;99123.27;108775;1252;94764;-71
2023/12/31 01:53:34;;;;;;;22.00;9.60;;;;;;;4.86;75.37;99121.60;108707;1253;109974;-72
2023/12/31 01:56:02;;;;;;;22.40;10.00;;;;;;;4.87;75.36;99122.44;108643;1253;94636;-71
2023/12/31 01:58:30;;;;;;;20.20;9.40;;;;;;;4.90;75.50;99125.98;108504;1253;106805;-71
2023/12/31 02:00:58;;;;;;;22.00;9.90;;;;;;;4.88;75.37;99123.08;108790;1252;94497;-71
2023/12/31 02:03:29;;;;;;;21.80;9.90;;;;;;;4.89;75.45;99122.50;108693;1253;94569;-71
2023/12/31 02:05:57;;;;;;;23.40;10.00;;;;;;;4.91;75.43;99125.39;108692;1253;110131;-71
2023/12/31 02:08:25;;;;;;;22.30;10.00;;;;;;;4.91;75.39;99131.19;108634;1253;95255;-72
2023/12/31 02:10:53;;;;;;;21.70;9.40;;;;;;;4.89;75.38;99130.44;108623;1253;107717;-71
2023/12/31 02:13:21;;;;;;;23.10;10.30;;;;;;;4.85;75.43;99132.38;108619;1253;94642;-71
2023/12/31 02:15:51;;;;;;;22.80;9.70;;;;;;;4.87;75.41;99135.97;108802;1252;94278;-72
2023/12/31 02:18:19;;;;;;;21.10;9.00;;;;;;;4.86;75.32;99135.15;108771;1252;109589;-71
2023/12/31 02:20:47;;;;;;;20.80;9.40;;;;;;;4.86;75.55;99137.05;108821;1252;94765;-71
2023/12/31 02:23:15;;;;;;;15.70;7.50;;;;;;;4.87;75.53;99133.51;108679;1253;107766;-70
2023/12/31 02:25:47;;;;;;;19.80;8.00;;;;;;;4.89;75.55;99131.63;108757;1252;94255;-71
2023/12/31 02:28:15;;;;;;;19.80;8.50;;;;;;;4.92;75.65;99130.78;108830;1252;94230;-70
2023/12/31 02:30:44;;;;;;;17.80;7.80;;;;;;;4.91;75.55;99132.22;108664;1253;109472;-70
2023/12/31 02:33:12;;;;;;;21.00;8.60;;;;;;;4.92;75.64;99129.20;108747;1253;95248;-70
2023/12/31 02:35:41;;;;;;;19.70;8.50;;;;;;;4.90;75.56;99128.39;108763;1252;107600;-70
2023/12/31 02:38:08;;;;;;;23.80;9.90;;;;;;;4.89;75.62;99126.71;108769;1253;96224;-70
2023/12/31 02:40:36;;;;;;;20.50;9.40;;;;;;;4.89;75.62;99127.95;108752;1253;94645;-70
2023/12/31 02:43:04;;;;;;;19.70;8.50;;;;;;;4.92;75.66;99128.67;108727;1253;109928;-70
2023/12/31 02:45:32;;;;;;;19.40;8.20;;;;;;;4.94;75.72;99126.84;108765;1252;94626;-70
2023/12/31 02:48:00;;;;;;;20.20;9.10;;;;;;;4.97;75.63;99122.66;108727;1253;107235;-70
2023/12/31 02:50:28;;;;;;;20.80;8.60;;;;;;;4.97;75.59;99124.73;108725;1253;94297;-70
2023/12/31 02:52:56;;;;;;;20.20;9.20;;;;;;;4.97;75.59;99126.52;108755;1253;94552;-70
2023/12/31 02:55:23;;;;;;;20.40;9.30;;;;;;;5.00;75.69;99125.85;108818;1252;110940;-70
2023/12/31 02:57:51;;;;;;;22.20;9.60;;;;;;;5.00;75.62;99126.70;108733;1253;95481;-70
2023/12/31 03:00:19;;;;;;;20.50;9.60;;;;;;;5.03;75.71;99128.68;108767;1252;106394;-70
2023/12/31 03:02:47;;;;;;;20.80;9.60;;;;;;;5.06;75.78;99132.39;108746;1253;94540;-70
2023/12/31 03:05:15;;;;;;;23.80;10.20;;;;;;;5.09;75.76;99132.42;108768;1253;94274;-70
2023/12/31 03:07:43;;;;;;;21.10;9.40;;;;;;;5.12;75.78;99137.93;108709;1253;110048;-70
2023/12/31 03:10:11;;;;;;;22.90;10.40;;;;;;;5.13;75.85;99137.88;108761;1253;95471;-70
2023/12/31 03:12:39;;;;;;;21.00;9.90;;;;;;;5.14;75.69;99138.88;108770;1253;108136;-70
2023/12/31 03:15:09;;;;;;;21.60;9.80;;;;;;;5.11;75.70;99137.07;108699;1253;94288;-70
2023/12/31 03:17:36;;;;;;;18.80;8.90;;;;;;;5.10;75.65;99135.02;108652;1254;94411;-70
2023/12/31 03:20:05;;;;;;;22.80;9.80;;;;;;;5.08;75.63;99141.43;108792;1253;109895;-70
2023/12/31 03:22:33;;;;;;;20.70;9.30;;;;;;;5.02;75.56;99143.14;108782;1253;95033;-70
2023/12/31 03:25:10;;;;;;;20.50;8.90;;;;;;;4.97;75.52;99142.17;108826;1253;107393;-70
2023/12/31 03:27:38;;;;;;;20.70;9.70;;;;;;;4.94;75.56;99138.96;108759;1253;94265;-70
2023/12/31 03:30:07;;;;;;;19.00;8.30;;;;;;;4.86;75.57;99138.30;108773;1253;94606;-70
2023/12/31 03:32:36;;;;;;;21.40;9.30;;;;;;;4.80;75.62;99143.65;108771;1253;110106;-70
2023/12/31 03:35:04;;;;;;;21.10;8.80;;;;;;;4.74;75.58;99141.83;108802;1252;94572;-70
2023/12/31 03:37:31;;;;;;;18.90;8.40;;;;;;;4.72;75.68;99143.48;108749;1253;107724;-70
2023/12/31 03:39:59;;;;;;;18.60;8.80;;;;;;;4.71;75.69;99143.21;108798;1253;94278;-70
2023/12/31 03:42:27;;;;;;;20.30;9.00;;;;;;;4.67;75.76;99143.04;108739;1253;94254;-70
2023/12/31 03:44:55;;;;;;;21.10;9.10;;;;;;;4.58;75.58;99143.45;108784;1252;110053;-70
2023/12/31 03:47:23;;;;;;;20.10;9.90;;;;;;;4.55;75.75;99140.98;108756;1252;94314;-70
2023/12/31 03:49:51;;;;;;;21.90;9.20;;;;;;;4.51;75.60;99141.84;108689;1253;107622;-70
2023/12/31 03:52:19;;;;;;;22.40;9.80;;;;;;;4.44;75.66;99144.27;108729;1253;94294;-70
2023/12/31 03:54:47;;;;;;;18.60;8.30;;;;;;;4.36;75.62;99144.48;108743;1253;94393;-70
2023/12/31 03:57:15;;;;;;;21.50;10.10;;;;;;;4.28;75.82;99144.64;108764;1253;110052;-70
2023/12/31 03:59:43;;;;;;;22.40;9.70;;;;;;;4.21;75.61;99147.09;108733;1253;94837;-70
2023/12/31 04:02:11;;;;;;;22.80;8.90;;;;;;;4.13;75.61;99147.45;108739;1253;107669;-70
2023/12/31 04:04:38;;;;;;;22.80;10.20;;;;;;;4.10;75.74;99145.63;108718;1252;94298;-70
2023/12/31 04:07:06;;;;;;;22.40;10.00;;;;;;;4.08;75.74;99145.91;108787;1253;94296;-70
2023/12/31 04:09:34;;;;;;;23.40;10.70;;;;;;;4.04;75.71;99148.04;108753;1253;109898;-70
2023/12/31 04:12:04;;;;;;;23.60;10.10;;;;;;;3.99;75.75;99153.15;108749;1253;94379;-70
2023/12/31 04:14:32;;;;;;;20.50;9.50;;;;;;;3.98;75.67;99148.61;108746;1254;107656;-70
2023/12/31 04:17:00;;;;;;;19.00;8.70;;;;;;;3.98;75.74;99149.16;108603;1253;94676;-70
2023/12/31 04:19:28;;;;;;;21.20;9.40;;;;;;;3.96;75.80;99150.64;108784;1253;94311;-70
2023/12/31 04:21:56;;;;;;;20.60;9.00;;;;;;;3.94;75.88;99150.38;108756;1253;109044;-70
2023/12/31 04:24:24;;;;;;;19.70;8.80;;;;;;;3.93;75.91;99149.36;108801;1253;94285;-70
2023/12/31 04:26:52;;;;;;;17.60;8.10;;;;;;;3.93;75.84;99149.53;108736;1253;106732;-71
2023/12/31 04:29:20;;;;;;;21.90;9.00;;;;;;;3.97;75.94;99151.84;108779;1253;94274;-70
2023/12/31 04:31:48;;;;;;;21.40;10.20;;;;;;;3.96;75.94;99150.13;108730;1253;94634;-70
2023/12/31 04:34:21;;;;;;;24.00;10.60;;;;;;;3.92;75.74;99143.27;108763;1253;109641;-70
2023/12/31 04:36:49;;;;;;;23.70;10.80;;;;;;;3.89;75.81;99141.83;108802;1252;95129;-70
2023/12/31 04:39:17;;;;;;;24.20;10.40;;;;;;;3.85;75.77;99140.58;108746;1254;108085;-70
2023/12/31 04:41:44;;;;;;;22.80;10.30;;;;;;;3.80;75.75;99142.38;108835;1253;94438;-70
2023/12/31 04:44:12;;;;;;;20.40;9.70;;;;;;;3.78;75.84;99143.88;108779;1253;94447;-70
2023/12/31 04:46:40;;;;;;;23.60;10.40;;;;;;;3.74;75.77;99148.25;108840;1252;109951;-70
2023/12/31 04:49:08;;;;;;;22.10;10.70;;;;;;;3.70;75.98;99149.13;108810;1253;95743;-70
2023/12/31 04:51:35;;;;;;;24.20;12.70;;;;;;;3.70;76.02;99152.95;108806;1253;108540;-70
2023/12/31 04:54:03;;;;;;;23.50;11.00;;;;;;;3.69;75.86;99147.93;108780;1254;94587;-70
2023/12/31 04:56:31;;;;;;;24.30;11.70;;;;;;;3.69;75.89;99140.39;108799;1252;94356;-70
2023/12/31 04:59:00;;;;;;;25.60;11.90;;;;;;;3.69;75.84;99133.38;108808;1253;109927;-70
2023/12/31 05:01:31;;;;;;;23.20;11.10;;;;;;;3.64;75.74;99134.49;108756;1253;95643;-70
2023/12/31 05:04:03;;;;;;;24.20;11.60;;;;;;;3.63;75.73;99130.14;108789;1253;107723;-70
2023/12/31 05:06:30;;;;;;;24.30;10.20;;;;;;;3.62;75.87;99130.04;108787;1253;94316;-70
2023/12/31 05:08:58;;;;;;;22.00;9.40;;;;;;;3.57;75.77;99132.51;108750;1253;94664;-70
2023/12/31 05:11:26;;;;;;;22.60;10.10;;;;;;;3.52;75.54;99129.55;108800;1253;108413;-70
2023/12/31 05:13:54;;;;;;;21.90;8.70;;;;;;;3.46;75.84;99132.79;108738;1253;94444;-70
2023/12/31 05:16:22;;;;;;;21.30;9.20;;;;;;;3.41;75.94;99137.56;108772;1252;107110;-70
2023/12/31 05:18:50;;;;;;;23.30;10.00;;;;;;;3.40;75.88;99133.77;108828;1252;94525;-70
2023/12/31 05:21:19;;;;;;;21.90;10.20;;;;;;;3.39;75.82;99125.36;108761;1253;94314;-70
2023/12/31 05:23:47;;;;;;;25.90;10.80;;;;;;;3.42;75.98;99123.67;108777;1253;109935;-70
2023/12/31 05:26:15;;;;;;;21.60;10.20;;;;;;;3.41;75.78;99121.62;108772;1253;95538;-70
2023/12/31 05:28:43;;;;;;;22.00;10.10;;;;;;;3.38;76.01;99121.21;108739;1252;107707;-70
2023/12/31 05:31:10;;;;;;;21.30;9.40;;;;;;;3.40;75.85;99116.21;108782;1252;94621;-69
2023/12/31 05:33:40;;;;;;;22.40;10.20;;;;;;;3.41;75.87;99119.48;108759;1252;94549;-70
2023/12/31 05:36:08;;;;;;;23.40;11.00;;;;;;;3.44;75.81;99122.19;108701;1253;109951;-70
2023/12/31 05:38:36;;;;;;;23.10;10.40;;;;;;;3.44;75.90;99117.99;108725;1253;94769;-70
2023/12/31 05:41:04;;;;;;;25.20;11.80;;;;;;;3.41;75.83;99116.16;108728;1253;107102;-70
2023/12/31 05:43:32;;;;;;;25.30;11.10;;;;;;;3.40;75.78;99119.17;108784;1253;94563;-70
2023/12/31 05:46:00;;;;;;;26.70;11.80;;;;;;;3.38;75.71;99118.05;108808;1253;94258;-70
2023/12/31 05:48:28;;;;;;;29.50;12.20;;;;;;;3.34;75.58;99122.40;108473;1253;109972;-70
2023/12/31 05:50:56;;;;;;;30.70;12.70;;;;;;;3.29;75.64;99122.95;108792;1253;95494;-70
2023/12/31 05:53:24;;;;;;;26.20;10.80;;;;;;;3.25;75.76;99123.86;108810;1252;107614;-70
2023/12/31 05:55:52;;;;;;;22.80;11.10;;;;;;;3.19;75.78;99122.84;108735;1253;94920;-70
2023/12/31 05:58:20;;;;;;;24.20;10.30;;;;;;;3.16;75.77;99119.30;108807;1253;94359;-70
2023/12/31 06:00:48;;;;;;;20.40;9.40;;;;;;;3.16;75.90;99119.14;108785;1254;109222;-70
2023/12/31 06:03:15;;;;;;;22.20;9.70;;;;;;;3.14;75.95;99119.21;108692;1253;95694;-70
2023/12/31 06:05:43;;;;;;;21.70;10.00;;;;;;;3.16;75.94;99118.80;108821;1252;107631;-70
2023/12/31 06:08:11;;;;;;;19.70;8.90;;;;;;;3.15;75.95;99116.54;108874;1253;94541;-70
2023/12/31 06:10:39;;;;;;;20.10;9.50;;;;;;;3.16;76.18;99118.42;108794;1252;94667;-69
2023/12/31 06:13:07;;;;;;;21.20;9.60;;;;;;;3.18;75.97;99115.73;108699;1253;109456;-70
2023/12/31 06:15:35;;;;;;;21.90;10.50;;;;;;;3.17;75.94;99109.98;108804;1252;95564;-70
2023/12/31 06:18:03;;;;;;;21.70;9.60;;;;;;;3.17;75.71;99116.81;108830;1253;108041;-70
2023/12/31 06:20:31;;;;;;;23.60;12.20;;;;;;;3.18;75.87;99117.45;108844;1252;94215;-70
2023/12/31 06:22:59;;;;;;;27.00;12.90;;;;;;;3.18;75.92;99117.29;108778;1252;94357;-69
2023/12/31 06:25:27;;;;;;;24.30;10.90;;;;;;;3.17;75.65;99119.80;108817;1253;109858;-70
2023/12/31 06:27:56;;;;;;;26.00;11.90;;;;;;;3.11;75.70;99118.45;108815;1253;95284;-70
2023/12/31 06:30:25;;;;;;;27.60;11.10;;;;;;;3.07;75.94;99119.84;108709;1253;105607;-70
2023/12/31 06:32:53;;;;;;;24.20;10.20;;;;;;;3.03;75.72;99122.12;108797;1252;94340;-70
2023/12/31 06:35:21;;;;;;;24.70;11.10;;;;;;;2.96;75.50;99119.59;108777;1254;94290;-70
2023/12/31 06:37:49;;;;;;;21.30;9.90;;;;;;;2.91;75.82;99121.20;108865;1253;110360;-70
2023/12/31 06:40:17;;;;;;;21.50;9.30;;;;;;;2.85;75.74;99121.09;108853;1252;95156;-70
2023/12/31 06:42:45;;;;;;;19.70;8.30;;;;;;;2.83;76.07;99124.33;108753;1254;107151;-70
2023/12/31 06:45:13;;;;;;;20.10;8.70;;;;;;;2.85;76.25;99126.70;108748;1253;94297;-70
2023/12/31 06:47:41;;;;;;;20.00;9.30;;;;;;;2.85;76.13;99126.70;108763;1253;94554;-70
2023/12/31 06:50:10;;;;;;;22.00;10.20;;;;;;;2.83;76.18;99128.70;108791;1254;109931;-70
2023/12/31 06:52:38;;;;;;;19.90;9.20;;;;;;;2.83;76.21;99127.98;108799;1253;95594;-70
2023/12/31 06:55:10;;;;;;;21.00;9.40;;;;;;;2.84;76.24;99126.40;108756;1253;106829;-69
2023/12/31 06:57:38;;;;;;;23.40;11.40;;;;;;;2.83;76.31;99132.04;108797;1254;94237;-69
2023/12/31 07:00:07;;;;;;;21.40;9.90;;;;;;;2.80;76.23;99130.90;108798;1254;94661;-70
2023/12/31 07:02:37;;;;;;;24.00;11.00;;;;;;;2.84;76.41;99127.98;108788;1256;109228;-72
2023/12/31 07:05:06;;;;;;;20.50;9.80;;;;;;;2.89;76.27;99129.34;108874;1253;95425;-72
2023/12/31 07:07:34;;;;;;;21.90;10.20;;;;;;;2.92;76.58;99125.89;108773;1253;107315;-73
2023/12/31 07:10:03;;;;;;;21.90;10.40;;;;;;;2.93;76.43;99127.59;108830;1252;94349;-73
2023/12/31 07:12:31;;;;;;;22.80;10.40;;;;;;;2.93;76.17;99128.98;108869;1253;94363;-73
2023/12/31 07:14:59;;;;;;;21.80;9.80;;;;;;;2.93;76.10;99130.40;108766;1252;109894;-72
2023/12/31 07:17:30;;;;;;;20.80;9.50;;;;;;;2.93;76.16;99125.32;108870;1253;96819;-72
2023/12/31 07:19:58;;;;;;;22.00;10.40;;;;;;;2.93;75.92;99128.31;108833;1252;105961;-73
2023/12/31 07:22:27;;;;;;;22.90;10.20;;;;;;;2.96;76.31;99130.62;108803;1253;94280;-73
2023/12/31 07:24:55;;;;;;;22.90;9.90;;;;;;;2.95;76.30;99125.08;108777;1252;94379;-72
2023/12/31 07:27:23;;;;;;;21.60;10.10;;;;;;;2.96;76.12;99127.67;108842;1253;109973;-72
2023/12/31 07:29:51;;;;;;;23.40;9.50;;;;;;;2.98;76.24;99125.29;108858;1254;95486;-72
2023/12/31 07:32:18;;;;;;;22.30;9.90;;;;;;;2.99;76.15;99122.44;108811;1253;107614;-72
2023/12/31 07:34:46;;;;;;;22.10;10.30;;;;;;;3.00;76.35;99124.16;108855;1253;94297;-72
2023/12/31 07:37:14;;;;;;;22.60;9.40;;;;;;;3.02;76.29;99123.06;108808;1253;94628;-72
2023/12/31 07:39:42;;;;;;;21.50;9.30;;;;;;;3.01;76.18;99126.23;108849;1253;110085;-72
2023/12/31 07:42:10;;;;;;;20.90;10.40;;;;;;;2.98;76.27;99126.00;108816;1253;95551;-72
2023/12/31 07:44:37;;;;;;;20.70;9.10;;;;;;;2.94;76.12;99126.48;108830;1254;107158;-72
2023/12/31 07:47:05;;;;;;;20.10;9.00;;;;;;;2.93;76.42;99119.70;108838;1254;94584;-73
2023/12/31 07:49:33;;;;;;;20.70;9.20;;;;;;;2.89;76.68;99114.98;108838;1252;94225;-73
2023/12/31 07:52:01;;;;;;;22.50;10.20;;;;;;;2.85;76.50;99114.62;108828;1253;109369;-73
2023/12/31 07:54:29;;;;;;;21.50;9.30;;;;;;;2.83;76.43;99112.59;108890;1252;94896;-72
2023/12/31 07:56:58;;;;;;;20.90;9.50;;;;;;;2.86;76.57;99111.23;108792;1252;107731;-72
2023/12/31 07:59:26;;;;;;;22.30;10.40;;;;;;;2.88;76.51;99111.34;108643;1254;94374;-72
2023/12/31 08:01:54;;;;;;;24.20;11.20;;;;;;;2.90;76.69;99115.96;108791;1256;94267;-72
2023/12/31 08:04:22;;;;;;;27.60;12.90;;;;;;;2.91;76.47;99114.54;108816;1253;110149;-72
2023/12/31 08:06:50;;;;;;;44.50;20.50;;;;;;;2.92;76.57;99113.25;108650;1256;95458;-72
2023/12/31 08:09:18;;;;;;;42.20;21.40;;;;;;;2.95;76.85;99113.15;108841;1253;107640;-72
2023/12/31 08:11:45;;;;;;;39.20;20.80;;;;;;;2.97;76.87;99112.38;108788;1252;94630;-72
2023/12/31 08:14:13;;;;;;;33.00;18.00;;;;;;;2.98;76.52;99108.65;108891;1252;94260;-72
2023/12/31 08:16:41;;;;;;;25.10;12.50;;;;;;;3.01;76.91;99114.33;108776;1252;109685;-72
2023/12/31 08:19:09;;;;;;;24.90;12.40;;;;;;;3.01;76.89;99118.00;108847;1253;95190;-73
2023/12/31 08:21:37;;;;;;;24.40;11.40;;;;;;;3.02;76.79;99119.17;108831;1252;106912;-73
2023/12/31 08:24:05;;;;;;;22.30;10.90;;;;;;;3.04;76.56;99118.76;108774;1254;95023;-73
2023/12/31 08:26:35;;;;;;;22.80;10.70;;;;;;;3.06;76.81;99117.42;108866;1253;94388;-74
2023/12/31 08:29:03;;;;;;;22.30;10.00;;;;;;;3.11;76.98;99117.77;108780;1254;110049;-73
2023/12/31 08:31:31;;;;;;;23.60;10.30;;;;;;;3.12;76.92;99115.77;108772;1253;95187;-73
2023/12/31 08:33:58;;;;;;;22.80;10.60;;;;;;;3.13;77.08;99116.09;108721;1256;106566;-74
2023/12/31 08:36:27;;;;;;;22.80;10.40;;;;;;;3.17;76.93;99115.95;108729;1252;94521;-73
2023/12/31 08:38:55;;;;;;;32.00;14.50;;;;;;;3.20;76.82;99110.02;108711;1252;94542;-73
2023/12/31 08:41:23;;;;;;;24.50;10.50;;;;;;;3.24;77.15;99108.45;108740;1252;110499;-73
2023/12/31 08:43:51;;;;;;;24.70;11.50;;;;;;;3.27;76.81;99116.73;108759;1253;95422;-73
2023/12/31 08:46:19;;;;;;;28.60;12.20;;;;;;;3.30;76.86;99118.37;108731;1254;107106;-73
2023/12/31 08:48:47;;;;;;;23.30;10.50;;;;;;;3.33;76.99;99119.11;108769;1254;94273;-74
2023/12/31 08:51:15;;;;;;;25.00;11.30;;;;;;;3.36;77.11;99121.96;108825;1256;94220;-74
2023/12/31 08:53:43;;;;;;;22.50;10.60;;;;;;;3.39;77.03;99122.73;108869;1255;110559;-74
2023/12/31 08:56:10;;;;;;;24.90;11.10;;;;;;;3.40;76.78;99116.70;108809;1256;96817;-73
2023/12/31 08:58:38;;;;;;;23.00;10.40;;;;;;;3.45;76.93;99120.05;108842;1251;108080;-74
2023/12/31 09:01:08;;;;;;;24.10;10.80;;;;;;;3.48;77.10;99116.73;108801;1253;94282;-74
2023/12/31 09:03:35;;;;;;;27.90;12.70;;;;;;;3.49;77.31;99117.59;108819;1253;94274;-73
2023/12/31 09:06:09;;;;;;;24.90;11.70;;;;;;;3.49;77.37;99113.69;108851;1254;109632;-77
2023/12/31 09:08:39;;;;;;;24.70;11.40;;;;;;;3.48;77.19;99108.15;108885;1253;95472;-78
2023/12/31 09:11:11;;;;;;;21.30;9.50;;;;;;;3.47;77.06;99106.81;108819;1254;107820;-74
2023/12/31 09:13:38;;;;;;;26.70;11.00;;;;;;;3.45;77.37;99104.78;108826;1253;94312;-75
2023/12/31 09:16:07;;;;;;;23.30;10.70;;;;;;;3.46;77.28;99108.61;108808;1254;94414;-75
2023/12/31 09:18:35;;;;;;;25.90;12.40;;;;;;;3.50;77.25;99099.48;108799;1256;110759;-75
2023/12/31 09:21:03;;;;;;;22.50;10.10;;;;;;;3.56;77.24;99094.11;108733;1254;95224;-77
2023/12/31 09:23:31;;;;;;;23.60;11.10;;;;;;;3.63;77.46;99081.74;108797;1254;107174;-75
2023/12/31 09:25:59;;;;;;;22.90;11.10;;;;;;;3.70;77.58;99078.61;108814;1254;94660;-74
2023/12/31 09:28:27;;;;;;;25.80;12.10;;;;;;;3.75;77.64;99078.59;108868;1254;94322;-74
2023/12/31 09:30:55;;;;;;;23.70;10.70;;;;;;;3.79;77.61;99063.87;108865;1254;108941;-75
2023/12/31 09:33:22;;;;;;;23.80;12.30;;;;;;;3.83;77.44;99063.83;108790;1253;96010;-76
2023/12/31 09:35:50;;;;;;;25.50;11.90;;;;;;;3.86;77.58;99061.23;108825;1253;107661;-75
2023/12/31 09:38:18;;;;;;;25.90;12.90;;;;;;;3.91;77.50;99060.50;108804;1253;94227;-75
2023/12/31 09:40:46;;;;;;;27.00;12.90;;;;;;;3.94;77.57;99060.00;108817;1254;94643;-75
2023/12/31 09:43:19;;;;;;;25.80;12.40;;;;;;;3.98;77.44;99056.35;108845;1253;109964;-73
2023/12/31 09:45:48;;;;;;;26.30;13.70;;;;;;;4.04;77.55;99058.88;108875;1254;95821;-75
2023/12/31 09:48:16;;;;;;;25.30;12.90;;;;;;;4.09;77.53;99052.65;108819;1254;107649;-74
2023/12/31 09:50:44;;;;;;;26.30;13.20;;;;;;;4.16;77.53;99050.59;108684;1253;94221;-74
2023/12/31 09:53:16;;;;;;;24.40;13.00;;;;;;;4.22;77.64;99053.30;108654;1257;94599;-74
2023/12/31 09:55:44;;;;;;;23.10;10.70;;;;;;;4.27;77.51;99047.27;108835;1254;109904;-74
2023/12/31 09:58:14;;;;;;;22.80;11.20;;;;;;;4.33;77.52;99039.45;108845;1255;95143;-74
2023/12/31 10:00:42;;;;;;;24.90;11.90;;;;;;;4.36;77.42;99037.94;108784;1254;107822;-75
2023/12/31 10:03:11;;;;;;;23.10;10.80;;;;;;;4.39;77.46;99037.39;108816;1254;94259;-75
2023/12/31 10:05:42;;;;;;;24.20;11.60;;;;;;;4.44;77.52;99034.19;108874;1256;94237;-74
2023/12/31 10:08:10;;;;;;;23.80;11.80;;;;;;;4.46;77.37;99032.70;108812;1253;109052;-74
2023/12/31 10:10:38;;;;;;;24.50;11.30;;;;;;;4.50;77.45;99030.56;108885;1253;95517;-74
2023/12/31 10:13:13;;;;;;;28.80;13.50;;;;;;;4.54;77.43;99028.62;108777;1256;107082;-74
2023/12/31 10:15:42;;;;;;;28.40;13.30;;;;;;;4.60;77.51;99030.62;108818;1254;94420;-74
2023/12/31 10:18:10;;;;;;;25.10;11.80;;;;;;;4.63;77.43;99024.67;108838;1254;94250;-74
2023/12/31 10:20:38;;;;;;;24.90;12.20;;;;;;;4.67;77.29;99017.31;108811;1254;109667;-74
2023/12/31 10:23:06;;;;;;;24.90;12.30;;;;;;;4.71;77.48;99014.43;108837;1254;94282;-75
2023/12/31 10:25:35;;;;;;;25.20;12.00;;;;;;;4.75;77.54;99013.17;108876;1254;107387;-74
2023/12/31 10:28:04;;;;;;;23.00;11.10;;;;;;;4.81;77.45;99005.17;108784;1254;94496;-74
2023/12/31 10:30:32;;;;;;;25.20;11.40;;;;;;;4.88;77.52;99004.64;108645;1254;94701;-74
2023/12/31 10:33:08;;;;;;;22.00;10.70;;;;;;;4.92;77.41;98997.39;108692;1252;108002;-75
2023/12/31 10:35:37;;;;;;;22.80;11.30;;;;;;;4.99;77.38;98989.33;108841;1253;94307;-75
2023/12/31 10:38:05;;;;;;;23.90;11.10;;;;;;;5.05;77.39;98986.05;108768;1255;107312;-75
2023/12/31 10:40:33;;;;;;;24.30;11.80;;;;;;;5.09;77.43;98982.17;108776;1254;94235;-74
2023/12/31 10:43:06;;;;;;;24.70;11.30;;;;;;;5.13;77.42;98978.61;108783;1254;95009;-74
2023/12/31 10:45:36;;;;;;;22.10;10.30;;;;;;;5.18;77.35;98973.23;108853;1254;109970;-74
2023/12/31 10:48:06;;;;;;;23.40;10.10;;;;;;;5.20;77.27;98962.95;108612;1254;95550;-74
2023/12/31 10:50:37;;;;;;;21.90;10.30;;;;;;;5.24;77.17;98960.46;108754;1253;108371;-74
2023/12/31 10:53:09;;;;;;;24.70;11.80;;;;;;;5.25;77.21;98954.79;108737;1253;94329;-74
2023/12/31 10:55:39;;;;;;;24.10;11.20;;;;;;;5.24;77.04;98945.02;108802;1253;94266;-76
2023/12/31 10:58:08;;;;;;;23.40;11.10;;;;;;;5.19;76.89;98936.95;108824;1253;111237;-74
2023/12/31 11:03:42;;;;;;;23.30;11.90;;;;;;;5.19;77.07;98928.34;101753;1303;635987;-74
2023/12/31 11:06:11;;;;;;;23.00;10.70;;;;;;;5.18;77.05;98925.08;104417;1272;95930;-75
2023/12/31 11:08:40;;;;;;;22.20;10.60;;;;;;;5.20;77.19;98922.33;105069;1260;94385;-74
2023/12/31 11:11:08;;;;;;;22.30;10.20;;;;;;;5.24;77.18;98915.65;105193;1260;107730;-74
2023/12/31 11:13:39;;;;;;;22.40;11.00;;;;;;;5.26;77.30;98911.65;105232;1260;95494;-74
2023/12/31 11:16:25;;;;;;;23.80;11.30;;;;;;;5.31;77.40;98910.70;105129;1254;144302;-74
2023/12/31 11:19:04;;;;;;;22.80;10.60;;;;;;;5.34;77.12;98906.11;105462;1259;94283;-75
2023/12/31 11:22:13;;;;;;;21.90;10.50;;;;;;;5.35;77.17;98904.64;105248;1254;94832;-75
2023/12/31 11:24:41;;;;;;;24.00;11.20;;;;;;;5.36;77.15;98903.54;104990;1262;106033;-75
2023/12/31 11:27:15;;;;;;;23.40;11.10;;;;;;;5.39;77.19;98900.05;105458;1257;95119;-75